Guernsey, IA

9:09 AM CDT on August 24, 2016 (GMT -0500)
Dietze Weather Station | | Change Station

Elev 883 ft 41.57 °N, 92.16 °W | Updated 6 seconds ago

Clear
Clear
72.7 °F
Feels Like 72 °F
N
1.3
Wind Variable Wind from WNW
Gusts 2.5 mph

Today
High -- | Low -- °F
--% Chance of Precip.
Yesterday
High -- | Low -- °F
Precip. -- in
Pressure 29.94 in
Visibility 10.0 miles
Clouds Clear
Heat Index 72 °F
Dew Point 68 °F
Humidity 84%
Rainfall 0.27 in
Snow Depth Not available.
6:27 AM 7:54 PM
Waning Gibbous, 56% visible
METAR KGGI 241355Z AUTO 24006KT 10SM CLR 22/19 A2994 RMK AO2 T02180193
Pressure 29.94 in
Visibility 10.0 miles
Clouds Clear
Heat Index 72 °F
Dew Point 68 °F
Humidity 84%
Rainfall 0.27 in
Snow Depth Not available.
6:27 AM 7:54 PM
Waning Gibbous, 56% visible
METAR KGGI 241355Z AUTO 24006KT 10SM CLR 22/19 A2994 RMK AO2 T02180193

10-Day Weather Forecast

Almanac

Astronomy

Aug. 24, 2016 Rise Set
Actual Time
Civil Twilight
Nautical Twilight
Astronomical Twilight
Moon
Length of Visible Light
Length of Day
Tomorrow will be .
, % of the Moon is Illuminated

Today's Extremes

State Highs State Lows

Community

WunderPhotos

Upload Photos

1,934,605 photos uploaded!

WunderBlog® & News

Nearby

Air Quality

  Air Quality AQ Index Pollutant
Not available.

Snow Depth

Station Depth Elevation

Earthquake Activity

City Distance Mag. Time & Date
Minimum magnitude displayed is 2.5.

Coastal Water Temperatures

Place Temperature

Stations

Nearby Weather Stations

Station Location Temp. Windchill Dew Point Humidity Wind Precip. Elev Updated Type
                   

Watches & Warnings

There are currently no watches in effect.